sensor_id;sensor_type;location;lat;lon;timestamp;P1;durP1;ratioP1;P2;durP2;ratioP2
79644;SDS011;69117;47.148;18.954;2023-05-27T00:01:56;18.52;;;10.18;;
79644;SDS011;69117;47.148;18.954;2023-05-27T00:04:58;15.82;;;9.90;;
79644;SDS011;69117;47.148;18.954;2023-05-27T00:08:00;15.13;;;9.52;;
79644;SDS011;69117;47.148;18.954;2023-05-27T00:11:02;13.77;;;8.63;;
79644;SDS011;69117;47.148;18.954;2023-05-27T00:14:03;12.65;;;8.52;;
79644;SDS011;69117;47.148;18.954;2023-05-27T00:17:05;14.38;;;8.35;;
79644;SDS011;69117;47.148;18.954;2023-05-27T00:20:07;13.38;;;8.63;;
79644;SDS011;69117;47.148;18.954;2023-05-27T00:23:11;12.15;;;8.50;;
79644;SDS011;69117;47.148;18.954;2023-05-27T00:26:13;13.10;;;8.25;;
79644;SDS011;69117;47.148;18.954;2023-05-27T00:29:17;12.73;;;7.80;;
79644;SDS011;69117;47.148;18.954;2023-05-27T00:32:20;13.32;;;8.25;;
79644;SDS011;69117;47.148;18.954;2023-05-27T00:35:21;14.02;;;8.05;;
79644;SDS011;69117;47.148;18.954;2023-05-27T00:38:23;12.25;;;7.53;;
79644;SDS011;69117;47.148;18.954;2023-05-27T00:41:25;14.18;;;8.50;;
79644;SDS011;69117;47.148;18.954;2023-05-27T00:44:27;11.35;;;6.85;;
79644;SDS011;69117;47.148;18.954;2023-05-27T00:47:30;12.48;;;7.53;;
79644;SDS011;69117;47.148;18.954;2023-05-27T00:50:34;11.70;;;6.72;;
79644;SDS011;69117;47.148;18.954;2023-05-27T00:53:39;15.63;;;9.20;;
79644;SDS011;69117;47.148;18.954;2023-05-27T00:56:42;13.13;;;8.75;;
79644;SDS011;69117;47.148;18.954;2023-05-27T00:59:44;12.38;;;8.25;;
79644;SDS011;69117;47.148;18.954;2023-05-27T01:02:46;15.65;;;9.15;;
79644;SDS011;69117;47.148;18.954;2023-05-27T01:05:51;15.95;;;8.75;;
79644;SDS011;69117;47.148;18.954;2023-05-27T01:09:11;11.95;;;7.55;;
79644;SDS011;69117;47.148;18.954;2023-05-27T01:12:39;15.15;;;9.15;;
79644;SDS011;69117;47.148;18.954;2023-05-27T01:15:42;16.98;;;9.88;;
79644;SDS011;69117;47.148;18.954;2023-05-27T01:18:44;17.13;;;10.15;;
79644;SDS011;69117;47.148;18.954;2023-05-27T01:21:47;16.08;;;9.73;;
79644;SDS011;69117;47.148;18.954;2023-05-27T01:24:52;17.10;;;10.45;;
79644;SDS011;69117;47.148;18.954;2023-05-27T01:27:53;15.52;;;9.25;;
79644;SDS011;69117;47.148;18.954;2023-05-27T01:31:01;16.50;;;10.07;;
79644;SDS011;69117;47.148;18.954;2023-05-27T01:34:12;16.00;;;10.15;;
79644;SDS011;69117;47.148;18.954;2023-05-27T01:37:19;16.35;;;10.57;;
79644;SDS011;69117;47.148;18.954;2023-05-27T01:40:24;15.73;;;11.00;;
79644;SDS011;69117;47.148;18.954;2023-05-27T01:43:27;16.83;;;11.15;;
79644;SDS011;69117;47.148;18.954;2023-05-27T01:46:30;17.52;;;10.00;;
79644;SDS011;69117;47.148;18.954;2023-05-27T01:49:31;17.40;;;10.02;;
79644;SDS011;69117;47.148;18.954;2023-05-27T01:52:33;15.52;;;10.05;;
79644;SDS011;69117;47.148;18.954;2023-05-27T01:55:35;15.95;;;10.77;;
79644;SDS011;69117;47.148;18.954;2023-05-27T01:58:36;20.05;;;10.50;;
79644;SDS011;69117;47.148;18.954;2023-05-27T02:01:38;14.73;;;10.68;;
79644;SDS011;69117;47.148;18.954;2023-05-27T02:04:41;16.80;;;10.40;;
79644;SDS011;69117;47.148;18.954;2023-05-27T02:07:42;20.70;;;11.18;;
79644;SDS011;69117;47.148;18.954;2023-05-27T02:10:44;16.45;;;10.25;;
79644;SDS011;69117;47.148;18.954;2023-05-27T02:13:46;16.08;;;10.98;;
79644;SDS011;69117;47.148;18.954;2023-05-27T02:16:47;15.52;;;10.27;;
79644;SDS011;69117;47.148;18.954;2023-05-27T02:19:50;18.20;;;10.77;;
79644;SDS011;69117;47.148;18.954;2023-05-27T02:22:52;18.00;;;10.48;;
79644;SDS011;69117;47.148;18.954;2023-05-27T02:25:54;17.95;;;10.25;;
79644;SDS011;69117;47.148;18.954;2023-05-27T02:28:56;15.30;;;9.50;;
79644;SDS011;69117;47.148;18.954;2023-05-27T02:31:58;14.07;;;9.55;;
79644;SDS011;69117;47.148;18.954;2023-05-27T02:34:59;16.15;;;9.57;;
79644;SDS011;69117;47.148;18.954;2023-05-27T02:38:01;18.85;;;9.50;;
79644;SDS011;69117;47.148;18.954;2023-05-27T02:41:03;16.70;;;10.05;;
79644;SDS011;69117;47.148;18.954;2023-05-27T02:44:05;14.38;;;9.43;;
79644;SDS011;69117;47.148;18.954;2023-05-27T02:47:06;14.15;;;9.10;;
79644;SDS011;69117;47.148;18.954;2023-05-27T02:50:08;18.38;;;9.95;;
79644;SDS011;69117;47.148;18.954;2023-05-27T02:53:10;17.92;;;11.02;;
79644;SDS011;69117;47.148;18.954;2023-05-27T02:56:12;20.23;;;9.57;;
79644;SDS011;69117;47.148;18.954;2023-05-27T02:59:13;18.30;;;9.95;;
79644;SDS011;69117;47.148;18.954;2023-05-27T03:02:15;18.15;;;11.25;;
79644;SDS011;69117;47.148;18.954;2023-05-27T03:05:17;14.30;;;9.13;;
79644;SDS011;69117;47.148;18.954;2023-05-27T03:08:18;16.83;;;9.93;;
79644;SDS011;69117;47.148;18.954;2023-05-27T03:11:20;18.75;;;10.85;;
79644;SDS011;69117;47.148;18.954;2023-05-27T03:14:22;19.05;;;10.00;;
79644;SDS011;69117;47.148;18.954;2023-05-27T03:17:24;16.58;;;11.23;;
79644;SDS011;69117;47.148;18.954;2023-05-27T03:20:26;17.73;;;10.48;;
79644;SDS011;69117;47.148;18.954;2023-05-27T03:23:27;18.13;;;10.63;;
79644;SDS011;69117;47.148;18.954;2023-05-27T03:26:29;18.25;;;10.70;;
79644;SDS011;69117;47.148;18.954;2023-05-27T03:29:31;15.32;;;9.68;;
79644;SDS011;69117;47.148;18.954;2023-05-27T03:32:33;20.30;;;10.98;;
79644;SDS011;69117;47.148;18.954;2023-05-27T03:35:35;17.92;;;10.68;;
79644;SDS011;69117;47.148;18.954;2023-05-27T03:38:36;17.67;;;10.80;;
79644;SDS011;69117;47.148;18.954;2023-05-27T03:41:38;20.98;;;10.25;;
79644;SDS011;69117;47.148;18.954;2023-05-27T03:44:40;18.55;;;11.27;;
79644;SDS011;69117;47.148;18.954;2023-05-27T03:47:41;17.40;;;10.68;;
79644;SDS011;69117;47.148;18.954;2023-05-27T03:50:43;14.75;;;9.07;;
79644;SDS011;69117;47.148;18.954;2023-05-27T03:53:45;18.88;;;9.25;;
79644;SDS011;69117;47.148;18.954;2023-05-27T03:56:46;13.35;;;9.27;;
79644;SDS011;69117;47.148;18.954;2023-05-27T03:59:48;16.17;;;8.77;;
79644;SDS011;69117;47.148;18.954;2023-05-27T04:02:50;16.95;;;9.82;;
79644;SDS011;69117;47.148;18.954;2023-05-27T04:05:51;18.48;;;9.82;;
79644;SDS011;69117;47.148;18.954;2023-05-27T04:08:53;18.55;;;10.43;;
79644;SDS011;69117;47.148;18.954;2023-05-27T04:11:55;17.02;;;9.98;;
79644;SDS011;69117;47.148;18.954;2023-05-27T04:14:56;15.25;;;10.30;;
79644;SDS011;69117;47.148;18.954;2023-05-27T04:17:59;14.35;;;8.85;;
79644;SDS011;69117;47.148;18.954;2023-05-27T04:21:01;15.20;;;9.57;;
79644;SDS011;69117;47.148;18.954;2023-05-27T04:24:03;13.00;;;9.07;;
79644;SDS011;69117;47.148;18.954;2023-05-27T04:27:04;14.73;;;10.13;;
79644;SDS011;69117;47.148;18.954;2023-05-27T04:30:06;15.05;;;8.73;;
79644;SDS011;69117;47.148;18.954;2023-05-27T04:33:10;14.30;;;9.23;;
79644;SDS011;69117;47.148;18.954;2023-05-27T04:36:12;15.73;;;9.27;;
79644;SDS011;69117;47.148;18.954;2023-05-27T04:39:18;14.50;;;9.40;;
79644;SDS011;69117;47.148;18.954;2023-05-27T04:42:20;14.27;;;8.75;;
79644;SDS011;69117;47.148;18.954;2023-05-27T04:45:21;13.57;;;8.55;;
79644;SDS011;69117;47.148;18.954;2023-05-27T04:48:23;14.43;;;8.43;;
79644;SDS011;69117;47.148;18.954;2023-05-27T04:51:25;13.27;;;8.80;;
79644;SDS011;69117;47.148;18.954;2023-05-27T04:54:27;17.48;;;9.63;;
79644;SDS011;69117;47.148;18.954;2023-05-27T04:57:29;14.35;;;8.52;;
79644;SDS011;69117;47.148;18.954;2023-05-27T05:00:30;13.35;;;8.88;;
79644;SDS011;69117;47.148;18.954;2023-05-27T05:03:52;12.40;;;7.82;;
79644;SDS011;69117;47.148;18.954;2023-05-27T05:07:03;13.70;;;8.15;;
79644;SDS011;69117;47.148;18.954;2023-05-27T05:10:06;14.90;;;8.60;;
79644;SDS011;69117;47.148;18.954;2023-05-27T05:13:08;12.35;;;9.07;;
79644;SDS011;69117;47.148;18.954;2023-05-27T05:16:10;13.02;;;8.20;;
79644;SDS011;69117;47.148;18.954;2023-05-27T05:19:12;12.77;;;8.00;;
79644;SDS011;69117;47.148;18.954;2023-05-27T05:22:14;13.73;;;8.05;;
79644;SDS011;69117;47.148;18.954;2023-05-27T05:25:15;13.07;;;7.90;;
79644;SDS011;69117;47.148;18.954;2023-05-27T05:28:17;12.13;;;8.00;;
79644;SDS011;69117;47.148;18.954;2023-05-27T05:31:18;10.32;;;7.35;;
79644;SDS011;69117;47.148;18.954;2023-05-27T05:34:20;9.80;;;6.72;;
79644;SDS011;69117;47.148;18.954;2023-05-27T05:37:22;10.48;;;7.00;;
79644;SDS011;69117;47.148;18.954;2023-05-27T05:40:25;10.80;;;6.90;;
79644;SDS011;69117;47.148;18.954;2023-05-27T05:43:26;10.10;;;6.72;;
79644;SDS011;69117;47.148;18.954;2023-05-27T05:46:28;11.65;;;7.18;;
79644;SDS011;69117;47.148;18.954;2023-05-27T05:49:30;10.45;;;6.80;;
79644;SDS011;69117;47.148;18.954;2023-05-27T05:52:32;9.68;;;6.43;;
79644;SDS011;69117;47.148;18.954;2023-05-27T05:55:33;7.50;;;5.75;;
79644;SDS011;69117;47.148;18.954;2023-05-27T05:58:35;8.07;;;6.43;;
79644;SDS011;69117;47.148;18.954;2023-05-27T06:01:37;10.48;;;6.10;;
79644;SDS011;69117;47.148;18.954;2023-05-27T06:04:38;10.45;;;6.32;;
79644;SDS011;69117;47.148;18.954;2023-05-27T06:07:40;9.30;;;5.68;;
79644;SDS011;69117;47.148;18.954;2023-05-27T06:10:42;10.05;;;6.03;;
79644;SDS011;69117;47.148;18.954;2023-05-27T06:13:43;8.85;;;6.22;;
79644;SDS011;69117;47.148;18.954;2023-05-27T06:16:45;8.75;;;5.95;;
79644;SDS011;69117;47.148;18.954;2023-05-27T06:19:47;9.48;;;6.22;;
79644;SDS011;69117;47.148;18.954;2023-05-27T06:22:48;10.48;;;6.15;;
79644;SDS011;69117;47.148;18.954;2023-05-27T06:25:51;9.40;;;5.38;;
79644;SDS011;69117;47.148;18.954;2023-05-27T06:28:53;9.93;;;5.38;;
79644;SDS011;69117;47.148;18.954;2023-05-27T06:31:54;7.68;;;5.45;;
79644;SDS011;69117;47.148;18.954;2023-05-27T06:34:56;9.23;;;5.70;;
79644;SDS011;69117;47.148;18.954;2023-05-27T06:37:58;10.20;;;5.13;;
79644;SDS011;69117;47.148;18.954;2023-05-27T06:41:00;7.40;;;5.50;;
79644;SDS011;69117;47.148;18.954;2023-05-27T06:44:01;7.28;;;5.75;;
79644;SDS011;69117;47.148;18.954;2023-05-27T06:47:04;9.07;;;4.70;;
79644;SDS011;69117;47.148;18.954;2023-05-27T06:50:05;9.75;;;4.78;;
79644;SDS011;69117;47.148;18.954;2023-05-27T06:53:08;8.20;;;4.78;;
79644;SDS011;69117;47.148;18.954;2023-05-27T06:56:11;8.00;;;4.93;;
79644;SDS011;69117;47.148;18.954;2023-05-27T06:59:13;8.80;;;4.60;;
79644;SDS011;69117;47.148;18.954;2023-05-27T07:02:14;6.93;;;4.40;;
79644;SDS011;69117;47.148;18.954;2023-05-27T07:05:16;9.13;;;4.93;;
79644;SDS011;69117;47.148;18.954;2023-05-27T07:08:18;10.45;;;5.15;;
79644;SDS011;69117;47.148;18.954;2023-05-27T07:11:19;11.02;;;5.03;;
79644;SDS011;69117;47.148;18.954;2023-05-27T07:14:21;8.00;;;7.25;;
79644;SDS011;69117;47.148;18.954;2023-05-27T07:17:23;8.25;;;4.93;;
79644;SDS011;69117;47.148;18.954;2023-05-27T07:20:25;9.20;;;5.10;;
79644;SDS011;69117;47.148;18.954;2023-05-27T07:23:26;6.40;;;4.60;;
79644;SDS011;69117;47.148;18.954;2023-05-27T07:26:29;9.45;;;4.82;;
79644;SDS011;69117;47.148;18.954;2023-05-27T07:29:31;7.93;;;5.22;;
79644;SDS011;69117;47.148;18.954;2023-05-27T07:32:33;10.25;;;5.40;;
79644;SDS011;69117;47.148;18.954;2023-05-27T07:35:34;6.68;;;4.47;;
79644;SDS011;69117;47.148;18.954;2023-05-27T07:38:36;8.07;;;5.05;;
79644;SDS011;69117;47.148;18.954;2023-05-27T07:41:38;9.50;;;5.07;;
79644;SDS011;69117;47.148;18.954;2023-05-27T07:44:39;8.63;;;4.28;;
79644;SDS011;69117;47.148;18.954;2023-05-27T07:47:41;8.00;;;4.78;;
79644;SDS011;69117;47.148;18.954;2023-05-27T07:50:43;8.73;;;5.00;;
79644;SDS011;69117;47.148;18.954;2023-05-27T07:53:45;8.18;;;4.38;;
79644;SDS011;69117;47.148;18.954;2023-05-27T07:56:46;7.10;;;4.75;;
79644;SDS011;69117;47.148;18.954;2023-05-27T07:59:48;8.23;;;4.10;;
79644;SDS011;69117;47.148;18.954;2023-05-27T08:02:50;7.78;;;4.50;;
79644;SDS011;69117;47.148;18.954;2023-05-27T08:05:53;5.93;;;4.18;;
79644;SDS011;69117;47.148;18.954;2023-05-27T08:08:55;7.50;;;4.05;;
79644;SDS011;69117;47.148;18.954;2023-05-27T08:11:57;8.73;;;4.68;;
79644;SDS011;69117;47.148;18.954;2023-05-27T08:14:59;7.68;;;4.90;;
79644;SDS011;69117;47.148;18.954;2023-05-27T08:18:00;9.05;;;4.85;;
79644;SDS011;69117;47.148;18.954;2023-05-27T08:21:03;7.80;;;4.50;;
79644;SDS011;69117;47.148;18.954;2023-05-27T08:24:04;7.57;;;4.45;;
79644;SDS011;69117;47.148;18.954;2023-05-27T08:27:13;7.35;;;4.32;;
79644;SDS011;69117;47.148;18.954;2023-05-27T08:30:19;7.88;;;4.03;;
79644;SDS011;69117;47.148;18.954;2023-05-27T08:33:21;7.18;;;4.53;;
79644;SDS011;69117;47.148;18.954;2023-05-27T08:36:24;6.70;;;4.60;;
79644;SDS011;69117;47.148;18.954;2023-05-27T08:39:27;6.00;;;4.00;;
79644;SDS011;69117;47.148;18.954;2023-05-27T08:42:29;6.68;;;3.78;;
79644;SDS011;69117;47.148;18.954;2023-05-27T08:45:30;7.50;;;4.32;;
79644;SDS011;69117;47.148;18.954;2023-05-27T08:48:32;6.15;;;3.63;;
79644;SDS011;69117;47.148;18.954;2023-05-27T08:51:35;6.18;;;3.65;;
79644;SDS011;69117;47.148;18.954;2023-05-27T08:54:40;6.40;;;4.10;;
79644;SDS011;69117;47.148;18.954;2023-05-27T08:57:47;5.55;;;3.72;;
79644;SDS011;69117;47.148;18.954;2023-05-27T09:00:56;6.45;;;4.20;;
79644;SDS011;69117;47.148;18.954;2023-05-27T09:04:03;6.72;;;4.03;;
79644;SDS011;69117;47.148;18.954;2023-05-27T09:07:05;7.72;;;4.07;;
79644;SDS011;69117;47.148;18.954;2023-05-27T09:10:07;4.90;;;3.40;;
79644;SDS011;69117;47.148;18.954;2023-05-27T09:13:09;7.55;;;3.97;;
79644;SDS011;69117;47.148;18.954;2023-05-27T09:16:11;8.50;;;4.30;;
79644;SDS011;69117;47.148;18.954;2023-05-27T09:19:16;6.82;;;4.65;;
79644;SDS011;69117;47.148;18.954;2023-05-27T09:22:19;6.28;;;3.65;;
79644;SDS011;69117;47.148;18.954;2023-05-27T09:25:26;6.70;;;3.72;;
79644;SDS011;69117;47.148;18.954;2023-05-27T09:28:29;4.85;;;3.60;;
79644;SDS011;69117;47.148;18.954;2023-05-27T09:31:30;8.98;;;4.50;;
79644;SDS011;69117;47.148;18.954;2023-05-27T09:34:37;6.82;;;3.67;;
79644;SDS011;69117;47.148;18.954;2023-05-27T09:37:40;6.45;;;4.65;;
79644;SDS011;69117;47.148;18.954;2023-05-27T09:40:43;6.47;;;4.25;;
79644;SDS011;69117;47.148;18.954;2023-05-27T09:43:52;5.35;;;3.88;;
79644;SDS011;69117;47.148;18.954;2023-05-27T09:46:55;4.90;;;3.50;;
79644;SDS011;69117;47.148;18.954;2023-05-27T09:49:58;9.50;;;4.53;;
79644;SDS011;69117;47.148;18.954;2023-05-27T09:53:01;7.95;;;4.18;;
79644;SDS011;69117;47.148;18.954;2023-05-27T09:56:12;6.90;;;3.97;;
79644;SDS011;69117;47.148;18.954;2023-05-27T09:59:14;6.60;;;3.50;;
79644;SDS011;69117;47.148;18.954;2023-05-27T10:02:17;6.70;;;4.13;;
79644;SDS011;69117;47.148;18.954;2023-05-27T10:05:21;4.45;;;2.92;;
79644;SDS011;69117;47.148;18.954;2023-05-27T10:08:24;4.88;;;3.72;;
79644;SDS011;69117;47.148;18.954;2023-05-27T10:11:30;6.55;;;3.58;;
79644;SDS011;69117;47.148;18.954;2023-05-27T10:14:33;8.57;;;3.30;;
79644;SDS011;69117;47.148;18.954;2023-05-27T10:17:48;23.08;;;8.13;;
79644;SDS011;69117;47.148;18.954;2023-05-27T10:20:50;6.50;;;3.63;;
79644;SDS011;69117;47.148;18.954;2023-05-27T10:23:56;7.15;;;4.25;;
79644;SDS011;69117;47.148;18.954;2023-05-27T10:27:01;9.90;;;4.80;;
79644;SDS011;69117;47.148;18.954;2023-05-27T10:30:07;27.20;;;7.72;;
79644;SDS011;69117;47.148;18.954;2023-05-27T10:33:09;11.85;;;4.65;;
79644;SDS011;69117;47.148;18.954;2023-05-27T10:39:27;7.07;;;3.85;;
79644;SDS011;69117;47.148;18.954;2023-05-27T10:42:30;5.00;;;3.58;;
79644;SDS011;69117;47.148;18.954;2023-05-27T10:45:32;4.82;;;3.25;;
79644;SDS011;69117;47.148;18.954;2023-05-27T10:48:35;5.13;;;4.05;;
79644;SDS011;69117;47.148;18.954;2023-05-27T10:51:38;6.03;;;3.78;;
79644;SDS011;69117;47.148;18.954;2023-05-27T10:54:42;4.68;;;3.42;;
79644;SDS011;69117;47.148;18.954;2023-05-27T10:57:45;5.32;;;4.28;;
79644;SDS011;69117;47.148;18.954;2023-05-27T11:00:48;11.32;;;5.30;;
79644;SDS011;69117;47.148;18.954;2023-05-27T11:03:52;8.40;;;4.10;;
79644;SDS011;69117;47.148;18.954;2023-05-27T11:06:56;3.85;;;3.05;;
79644;SDS011;69117;47.148;18.954;2023-05-27T11:10:03;5.13;;;3.90;;
79644;SDS011;69117;47.148;18.954;2023-05-27T11:13:06;5.57;;;4.15;;
79644;SDS011;69117;47.148;18.954;2023-05-27T11:16:08;6.88;;;4.20;;
79644;SDS011;69117;47.148;18.954;2023-05-27T11:19:11;4.97;;;3.90;;
79644;SDS011;69117;47.148;18.954;2023-05-27T11:22:13;4.45;;;3.78;;
79644;SDS011;69117;47.148;18.954;2023-05-27T11:25:16;5.63;;;3.92;;
79644;SDS011;69117;47.148;18.954;2023-05-27T11:28:17;5.93;;;4.65;;
79644;SDS011;69117;47.148;18.954;2023-05-27T11:31:19;4.03;;;3.38;;
79644;SDS011;69117;47.148;18.954;2023-05-27T11:34:27;6.18;;;4.10;;
79644;SDS011;69117;47.148;18.954;2023-05-27T11:37:33;5.22;;;3.75;;
79644;SDS011;69117;47.148;18.954;2023-05-27T11:40:36;7.22;;;3.70;;
79644;SDS011;69117;47.148;18.954;2023-05-27T11:43:50;7.20;;;3.83;;
79644;SDS011;69117;47.148;18.954;2023-05-27T11:46:59;6.72;;;3.35;;
79644;SDS011;69117;47.148;18.954;2023-05-27T11:50:02;8.32;;;4.18;;
79644;SDS011;69117;47.148;18.954;2023-05-27T11:53:04;5.07;;;4.35;;
79644;SDS011;69117;47.148;18.954;2023-05-27T11:56:05;7.25;;;4.97;;
79644;SDS011;69117;47.148;18.954;2023-05-27T11:59:07;6.50;;;4.10;;
79644;SDS011;69117;47.148;18.954;2023-05-27T12:02:09;5.82;;;4.60;;
79644;SDS011;69117;47.148;18.954;2023-05-27T12:05:11;4.85;;;3.63;;
79644;SDS011;69117;47.148;18.954;2023-05-27T12:08:26;4.97;;;3.65;;
79644;SDS011;69117;47.148;18.954;2023-05-27T12:11:27;6.28;;;3.75;;
79644;SDS011;69117;47.148;18.954;2023-05-27T12:14:29;5.97;;;4.10;;
79644;SDS011;69117;47.148;18.954;2023-05-27T12:17:30;6.78;;;4.10;;
79644;SDS011;69117;47.148;18.954;2023-05-27T12:20:32;6.25;;;3.03;;
79644;SDS011;69117;47.148;18.954;2023-05-27T12:23:34;7.93;;;4.10;;
79644;SDS011;69117;47.148;18.954;2023-05-27T12:26:36;10.32;;;4.85;;
79644;SDS011;69117;47.148;18.954;2023-05-27T12:29:38;5.60;;;4.07;;
79644;SDS011;69117;47.148;18.954;2023-05-27T12:32:40;7.57;;;4.25;;
79644;SDS011;69117;47.148;18.954;2023-05-27T12:35:43;5.18;;;4.38;;
79644;SDS011;69117;47.148;18.954;2023-05-27T12:38:45;10.70;;;5.28;;
79644;SDS011;69117;47.148;18.954;2023-05-27T12:41:46;4.47;;;3.28;;
79644;SDS011;69117;47.148;18.954;2023-05-27T12:44:48;6.82;;;4.03;;
79644;SDS011;69117;47.148;18.954;2023-05-27T12:47:50;7.35;;;3.72;;
79644;SDS011;69117;47.148;18.954;2023-05-27T12:50:52;5.32;;;3.90;;
79644;SDS011;69117;47.148;18.954;2023-05-27T12:53:54;6.38;;;3.70;;
79644;SDS011;69117;47.148;18.954;2023-05-27T12:56:55;6.93;;;4.20;;
79644;SDS011;69117;47.148;18.954;2023-05-27T12:59:57;4.72;;;3.42;;
79644;SDS011;69117;47.148;18.954;2023-05-27T13:02:59;7.78;;;4.03;;
79644;SDS011;69117;47.148;18.954;2023-05-27T13:06:00;7.03;;;5.18;;
79644;SDS011;69117;47.148;18.954;2023-05-27T13:09:02;7.20;;;4.63;;
79644;SDS011;69117;47.148;18.954;2023-05-27T13:12:05;6.75;;;3.88;;
79644;SDS011;69117;47.148;18.954;2023-05-27T13:15:08;7.00;;;4.05;;
79644;SDS011;69117;47.148;18.954;2023-05-27T13:18:10;10.63;;;5.10;;
79644;SDS011;69117;47.148;18.954;2023-05-27T13:21:12;13.80;;;7.05;;
79644;SDS011;69117;47.148;18.954;2023-05-27T13:24:13;13.70;;;5.93;;
79644;SDS011;69117;47.148;18.954;2023-05-27T13:27:15;22.35;;;6.57;;
79644;SDS011;69117;47.148;18.954;2023-05-27T13:30:17;10.27;;;4.88;;
79644;SDS011;69117;47.148;18.954;2023-05-27T13:33:18;20.08;;;7.55;;
79644;SDS011;69117;47.148;18.954;2023-05-27T13:36:20;7.40;;;4.63;;
79644;SDS011;69117;47.148;18.954;2023-05-27T13:39:22;8.02;;;3.42;;
79644;SDS011;69117;47.148;18.954;2023-05-27T13:42:24;7.38;;;3.38;;
79644;SDS011;69117;47.148;18.954;2023-05-27T13:45:25;8.00;;;3.75;;
79644;SDS011;69117;47.148;18.954;2023-05-27T13:48:28;7.97;;;4.13;;
79644;SDS011;69117;47.148;18.954;2023-05-27T13:51:30;5.72;;;3.58;;
79644;SDS011;69117;47.148;18.954;2023-05-27T13:54:33;5.93;;;3.28;;
79644;SDS011;69117;47.148;18.954;2023-05-27T13:57:35;7.28;;;3.58;;
79644;SDS011;69117;47.148;18.954;2023-05-27T14:00:36;7.20;;;3.65;;
79644;SDS011;69117;47.148;18.954;2023-05-27T14:03:38;7.28;;;3.78;;
79644;SDS011;69117;47.148;18.954;2023-05-27T14:06:40;7.80;;;4.00;;
79644;SDS011;69117;47.148;18.954;2023-05-27T14:09:41;6.22;;;3.90;;
79644;SDS011;69117;47.148;18.954;2023-05-27T14:12:43;6.03;;;3.65;;
79644;SDS011;69117;47.148;18.954;2023-05-27T14:15:45;7.35;;;3.95;;
79644;SDS011;69117;47.148;18.954;2023-05-27T14:18:47;8.30;;;3.58;;
79644;SDS011;69117;47.148;18.954;2023-05-27T14:21:48;8.32;;;4.30;;
79644;SDS011;69117;47.148;18.954;2023-05-27T14:24:50;8.32;;;5.03;;
79644;SDS011;69117;47.148;18.954;2023-05-27T14:27:52;8.73;;;4.53;;
79644;SDS011;69117;47.148;18.954;2023-05-27T14:30:53;5.03;;;4.13;;
79644;SDS011;69117;47.148;18.954;2023-05-27T14:33:55;6.10;;;4.00;;
79644;SDS011;69117;47.148;18.954;2023-05-27T14:36:57;5.20;;;3.75;;
79644;SDS011;69117;47.148;18.954;2023-05-27T14:39:59;9.52;;;3.80;;
79644;SDS011;69117;47.148;18.954;2023-05-27T14:43:00;7.32;;;3.30;;
79644;SDS011;69117;47.148;18.954;2023-05-27T14:46:03;6.10;;;3.60;;
79644;SDS011;69117;47.148;18.954;2023-05-27T14:49:04;5.25;;;4.25;;
79644;SDS011;69117;47.148;18.954;2023-05-27T14:52:06;4.50;;;3.75;;
79644;SDS011;69117;47.148;18.954;2023-05-27T14:55:08;5.22;;;3.28;;
79644;SDS011;69117;47.148;18.954;2023-05-27T14:58:10;6.00;;;3.58;;
79644;SDS011;69117;47.148;18.954;2023-05-27T15:01:13;7.63;;;3.72;;
79644;SDS011;69117;47.148;18.954;2023-05-27T15:04:16;5.75;;;3.88;;
79644;SDS011;69117;47.148;18.954;2023-05-27T15:07:18;5.90;;;3.85;;
79644;SDS011;69117;47.148;18.954;2023-05-27T15:10:23;6.50;;;3.85;;
79644;SDS011;69117;47.148;18.954;2023-05-27T15:13:25;5.75;;;3.30;;
79644;SDS011;69117;47.148;18.954;2023-05-27T15:16:27;10.15;;;4.13;;
79644;SDS011;69117;47.148;18.954;2023-05-27T15:19:29;7.13;;;4.05;;
79644;SDS011;69117;47.148;18.954;2023-05-27T15:22:31;4.97;;;3.88;;
79644;SDS011;69117;47.148;18.954;2023-05-27T15:25:33;6.28;;;3.70;;
79644;SDS011;69117;47.148;18.954;2023-05-27T15:28:37;7.43;;;4.15;;
79644;SDS011;69117;47.148;18.954;2023-05-27T15:31:39;6.57;;;4.68;;
79644;SDS011;69117;47.148;18.954;2023-05-27T15:34:41;7.50;;;3.65;;
79644;SDS011;69117;47.148;18.954;2023-05-27T15:37:42;5.90;;;4.07;;
79644;SDS011;69117;47.148;18.954;2023-05-27T15:40:44;9.05;;;4.22;;
79644;SDS011;69117;47.148;18.954;2023-05-27T15:43:46;7.63;;;4.15;;
79644;SDS011;69117;47.148;18.954;2023-05-27T15:46:47;5.65;;;3.33;;
79644;SDS011;69117;47.148;18.954;2023-05-27T15:49:49;5.57;;;3.75;;
79644;SDS011;69117;47.148;18.954;2023-05-27T15:52:51;6.18;;;3.50;;
79644;SDS011;69117;47.148;18.954;2023-05-27T15:55:52;8.02;;;4.55;;
79644;SDS011;69117;47.148;18.954;2023-05-27T15:58:54;6.25;;;3.60;;
79644;SDS011;69117;47.148;18.954;2023-05-27T16:01:56;7.05;;;3.67;;
79644;SDS011;69117;47.148;18.954;2023-05-27T16:04:58;8.18;;;4.13;;
79644;SDS011;69117;47.148;18.954;2023-05-27T16:08:00;7.03;;;4.05;;
79644;SDS011;69117;47.148;18.954;2023-05-27T16:11:01;7.43;;;4.13;;
79644;SDS011;69117;47.148;18.954;2023-05-27T16:14:03;7.60;;;4.05;;
79644;SDS011;69117;47.148;18.954;2023-05-27T16:17:04;6.38;;;4.25;;
79644;SDS011;69117;47.148;18.954;2023-05-27T16:20:06;6.22;;;3.75;;
79644;SDS011;69117;47.148;18.954;2023-05-27T16:23:08;4.65;;;3.88;;
79644;SDS011;69117;47.148;18.954;2023-05-27T16:26:10;7.15;;;4.30;;
79644;SDS011;69117;47.148;18.954;2023-05-27T16:29:12;8.20;;;3.97;;
79644;SDS011;69117;47.148;18.954;2023-05-27T16:32:13;4.43;;;3.33;;
79644;SDS011;69117;47.148;18.954;2023-05-27T16:35:15;5.53;;;3.92;;
79644;SDS011;69117;47.148;18.954;2023-05-27T16:38:18;6.47;;;3.65;;
79644;SDS011;69117;47.148;18.954;2023-05-27T16:41:20;6.95;;;4.90;;
79644;SDS011;69117;47.148;18.954;2023-05-27T16:44:23;7.78;;;4.30;;
79644;SDS011;69117;47.148;18.954;2023-05-27T16:47:24;7.25;;;4.10;;
79644;SDS011;69117;47.148;18.954;2023-05-27T16:50:26;5.15;;;4.35;;
79644;SDS011;69117;47.148;18.954;2023-05-27T16:53:28;8.57;;;4.72;;
79644;SDS011;69117;47.148;18.954;2023-05-27T16:56:30;5.05;;;4.10;;
79644;SDS011;69117;47.148;18.954;2023-05-27T16:59:32;5.80;;;3.75;;
79644;SDS011;69117;47.148;18.954;2023-05-27T17:02:34;6.82;;;3.83;;
79644;SDS011;69117;47.148;18.954;2023-05-27T17:05:36;5.55;;;4.22;;
79644;SDS011;69117;47.148;18.954;2023-05-27T17:08:38;5.82;;;4.03;;
79644;SDS011;69117;47.148;18.954;2023-05-27T17:11:39;8.35;;;3.92;;
79644;SDS011;69117;47.148;18.954;2023-05-27T17:14:41;4.85;;;3.88;;
79644;SDS011;69117;47.148;18.954;2023-05-27T17:17:44;4.82;;;3.97;;
79644;SDS011;69117;47.148;18.954;2023-05-27T17:20:46;6.88;;;4.07;;
79644;SDS011;69117;47.148;18.954;2023-05-27T17:23:48;6.32;;;4.28;;
79644;SDS011;69117;47.148;18.954;2023-05-27T17:26:50;6.10;;;4.25;;
79644;SDS011;69117;47.148;18.954;2023-05-27T17:29:51;6.60;;;4.20;;
79644;SDS011;69117;47.148;18.954;2023-05-27T17:32:53;9.65;;;4.35;;
79644;SDS011;69117;47.148;18.954;2023-05-27T17:35:55;5.63;;;4.05;;
79644;SDS011;69117;47.148;18.954;2023-05-27T17:38:57;6.32;;;4.20;;
79644;SDS011;69117;47.148;18.954;2023-05-27T17:41:59;7.30;;;4.03;;
79644;SDS011;69117;47.148;18.954;2023-05-27T17:45:01;7.63;;;4.10;;
79644;SDS011;69117;47.148;18.954;2023-05-27T17:48:03;9.07;;;4.57;;
79644;SDS011;69117;47.148;18.954;2023-05-27T17:51:05;8.10;;;3.83;;
79644;SDS011;69117;47.148;18.954;2023-05-27T17:54:08;6.05;;;3.80;;
79644;SDS011;69117;47.148;18.954;2023-05-27T17:57:09;7.95;;;3.90;;
79644;SDS011;69117;47.148;18.954;2023-05-27T18:00:11;6.60;;;4.53;;